Huvudsida
METAR-TAF:

METAR-TAF

Flygplatser :

Moskva-Sjeremetievo, Ryssland

Sjeremetevos internationella flygplats

latitud: 55-59N, longitud: 037-30E, höjd: 190 m

Aktuellt väderrapport

Denna rapport gjordes för 23 minuter sedan, klockan 04:30 UTC
Vind 2 kt varierande vindriktning
Temperatur -21°C
Fuktighet 84%
Tryck 1026 hPa
Sikt 10 km eller mer
Inga moln under 1 500 m eller inga cumulonimbus

METAR: UUEE 230430Z VRB01MPS CAVOK M21/M23 Q1026 R24R/410340 R24L/410348 NOSIG

Tid: 07:53 (04:53 UTC)

Väderprognos

Denna rapport gjordes för 2 timmar och 53 minuter sedan, klockan 02:00 UTC
Prognos gäller från 23 kl. 03 UTC till 24 kl. 03 UTC
Vind 6 kt från väst/nordväst
Sikt 10 km eller mer
Spridda moln på en höjd av 1100 ft
Blir
från 23 kl. 14 UTC till 23 kl. 18 UTC
Vind 6 kt från nord

TAF: UUEE 230200Z 2303/2403 30003MPS 9999 SCT011 TXM09/2312Z TNM20/2303Z BECMG 2314/2318 36003MPS

Aktuella väderrapporter och prognoser från 4000 flygplatser (METAR- och TAF-rapporter).

De tillgängliga stationerna syns som gula och röda prickar på kartan.

För musen över prickarna för att se namnen på stationerna.

Klicka sedan för att få väderrapporter och prognoser.

För att ändra kartan: Klicka på de gröna knapparna med ett svart kors på för att zooma in; den gröna knappen med ett streck på för att zooma ut; eller på de gröna pilarna för angränsande kartor.


METAR-TAF: